Time;durP1;ratioP1;P1;durP2;ratioP2;P2;SDS_P1;SDS_P2;PMS_P1;PMS_P2;Temp;Humidity;BMP_temperature;BMP_pressure;BME280_temperature;BME280_humidity;BME280_pressure;Samples;Min_cycle;Max_cycle;Signal;HPM_P1;HPM_P2
2022/04/07 00:01:07;;;;;;;18.73;9.80;;;;;;;9.16;80.11;98550.41;3542754;82;98614;-82
2022/04/07 00:06:13;;;;;;;20.12;10.08;;;;;;;9.30;80.08;98558.45;3519717;82;98503;-82
2022/04/07 00:11:11;;;;;;;18.15;8.68;;;;;;;9.32;80.07;98556.06;3525186;81;98616;-81
2022/04/07 00:16:12;;;;;;;14.83;8.40;;;;;;;9.34;80.00;98546.05;3577421;81;98597;-82
2022/04/07 00:21:24;;;;;;;16.93;8.93;;;;;;;9.35;79.86;98544.86;3590518;81;98578;-82
2022/04/07 00:26:16;;;;;;;19.37;8.20;;;;;;;9.37;79.82;98538.37;3570682;81;98508;-82
2022/04/07 00:31:17;;;;;;;17.97;9.03;;;;;;;9.36;79.77;98529.94;3587543;80;98471;-83
2022/04/07 00:36:18;;;;;;;17.02;8.23;;;;;;;9.39;79.79;98529.13;3581805;81;98857;-82
2022/04/07 00:41:19;;;;;;;22.27;9.83;;;;;;;9.37;79.83;98528.16;3584072;81;98886;-83
2022/04/07 00:46:20;;;;;;;19.25;9.75;;;;;;;9.36;79.87;98518.38;3570119;81;98588;-82
2022/04/07 00:51:21;;;;;;;20.23;10.38;;;;;;;9.36;79.96;98517.58;3584080;81;98563;-81
2022/04/07 00:56:24;;;;;;;20.23;9.97;;;;;;;9.36;80.26;98510.72;3575881;81;98861;-84
2022/04/07 01:01:28;;;;;;;19.77;10.80;;;;;;;9.35;80.25;98509.17;3560519;81;98501;-82
2022/04/07 01:06:27;;;;;;;20.93;10.43;;;;;;;9.35;80.62;98509.17;3562298;81;98797;-81
2022/04/07 01:11:31;;;;;;;19.27;10.47;;;;;;;9.32;80.79;98502.54;3593500;80;98770;-82
2022/04/07 01:16:32;;;;;;;20.23;11.30;;;;;;;9.29;81.03;98499.27;3553737;81;98750;-82
2022/04/07 01:21:36;;;;;;;16.73;9.83;;;;;;;9.27;81.28;98501.63;3532608;82;98751;-83
2022/04/07 01:26:41;;;;;;;25.52;12.20;;;;;;;9.25;81.32;98502.66;3551083;82;98532;-82
2022/04/07 01:31:42;;;;;;;22.27;13.53;;;;;;;9.22;81.71;98499.97;3541267;81;98750;-82
2022/04/07 01:36:48;;;;;;;22.73;11.93;;;;;;;9.18;82.21;98497.86;3543361;82;98933;-82
2022/04/07 01:41:49;;;;;;;26.30;12.78;;;;;;;9.15;82.47;98494.55;3536710;81;98993;-81
2022/04/07 01:46:51;;;;;;;26.57;13.70;;;;;;;9.11;82.74;98489.73;3506309;82;98752;-81
2022/04/07 01:51:52;;;;;;;23.97;12.73;;;;;;;9.09;83.03;98488.77;3539820;81;100426;-82
2022/04/07 01:56:53;;;;;;;20.50;11.50;;;;;;;9.06;83.09;98482.72;3543790;82;99151;-81
2022/04/07 02:01:54;;;;;;;20.30;11.50;;;;;;;9.05;83.24;98477.67;3551773;82;98894;-81
2022/04/07 02:06:55;;;;;;;22.00;12.70;;;;;;;9.03;83.38;98480.83;3549253;82;98948;-81
2022/04/07 02:11:56;;;;;;;21.75;12.13;;;;;;;9.00;83.43;98472.64;3551271;82;99011;-83
2022/04/07 02:16:57;;;;;;;25.70;13.30;;;;;;;8.98;83.53;98473.05;3553743;81;98882;-82
2022/04/07 02:21:58;;;;;;;22.75;12.98;;;;;;;8.93;83.87;98468.02;3648067;79;99005;-82
2022/04/07 02:26:59;;;;;;;24.90;12.93;;;;;;;8.91;83.95;98459.45;3655292;79;98924;-82
2022/04/07 02:32:00;;;;;;;23.83;13.10;;;;;;;8.90;84.15;98455.13;3632306;79;98792;-81
2022/04/07 02:37:01;;;;;;;25.13;12.97;;;;;;;8.89;84.33;98449.45;3650542;79;98774;-80
2022/04/07 02:42:03;;;;;;;20.23;11.22;;;;;;;8.88;84.40;98451.27;3656395;79;98808;-82
2022/04/07 02:47:05;;;;;;;22.70;11.60;;;;;;;8.85;84.44;98444.64;3650008;79;98949;-82
2022/04/07 02:52:08;;;;;;;22.97;11.57;;;;;;;8.83;84.47;98443.50;3662571;79;123687;-82
2022/04/07 02:57:09;;;;;;;21.43;10.90;;;;;;;8.80;84.45;98430.59;3654657;79;99183;-82
2022/04/07 03:02:10;;;;;;;16.97;9.90;;;;;;;8.79;84.39;98426.30;3656783;79;98781;-82
2022/04/07 03:07:11;;;;;;;15.63;10.03;;;;;;;8.77;84.34;98427.33;3644476;79;98601;-81
2022/04/07 03:12:13;;;;;;;16.03;8.87;;;;;;;8.75;84.42;98422.25;3640277;79;98838;-81
2022/04/07 03:17:14;;;;;;;16.35;9.28;;;;;;;8.71;84.15;98422.88;3677648;78;98513;-82
2022/04/07 03:22:18;;;;;;;16.30;8.60;;;;;;;8.70;84.24;98417.80;3686330;79;98592;-81
2022/04/07 03:27:18;;;;;;;16.97;9.27;;;;;;;8.65;84.45;98416.30;3672430;79;98561;-82
2022/04/07 03:32:19;;;;;;;17.20;8.40;;;;;;;8.65;84.45;98416.89;3691116;78;99601;-82
2022/04/07 03:37:20;;;;;;;18.32;8.63;;;;;;;8.62;84.33;98417.73;3652405;79;98610;-82
2022/04/07 03:42:21;;;;;;;13.62;8.73;;;;;;;8.59;84.31;98418.54;3675016;79;98813;-82
2022/04/07 03:47:22;;;;;;;16.80;8.10;;;;;;;8.53;84.46;98415.50;3652913;79;98657;-83
2022/04/07 03:52:23;;;;;;;16.23;7.93;;;;;;;8.50;84.49;98411.44;3677506;79;98615;-83
2022/04/07 03:57:24;;;;;;;16.03;7.80;;;;;;;8.46;84.52;98413.44;3653101;79;98494;-82
2022/04/07 04:02:25;;;;;;;16.23;8.00;;;;;;;8.44;84.55;98410.31;3689954;78;98465;-83
2022/04/07 04:07:26;;;;;;;16.27;7.20;;;;;;;8.44;84.53;98403.45;3677036;79;98471;-82
2022/04/07 04:12:27;;;;;;;14.45;8.08;;;;;;;8.43;84.50;98399.17;3685207;78;98582;-82
2022/04/07 04:17:32;;;;;;;14.50;6.80;;;;;;;8.42;84.52;98398.99;3681275;78;98271;-82
2022/04/07 04:22:33;;;;;;;11.80;6.37;;;;;;;8.41;84.45;98398.20;3595620;81;98425;-83
2022/04/07 04:27:34;;;;;;;13.40;6.20;;;;;;;8.42;84.31;98394.88;3534948;81;98523;-82
2022/04/07 04:32:36;;;;;;;15.27;5.87;;;;;;;8.41;84.18;98390.59;3588990;81;98904;-82
2022/04/07 04:37:38;;;;;;;13.73;6.13;;;;;;;8.39;84.31;98388.25;3562395;81;98532;-82
2022/04/07 04:42:42;;;;;;;10.48;5.50;;;;;;;8.37;84.21;98386.53;3594667;81;98893;-82
2022/04/07 04:47:44;;;;;;;12.13;5.67;;;;;;;8.35;84.29;98389.50;3564292;81;98485;-82
2022/04/07 04:52:44;;;;;;;11.15;5.72;;;;;;;8.30;84.18;98380.36;3536075;80;98806;-82
2022/04/07 04:57:45;;;;;;;13.28;5.50;;;;;;;8.26;84.17;98375.52;3571119;81;98539;-82
2022/04/07 05:02:46;;;;;;;10.57;5.13;;;;;;;8.22;84.43;98374.77;3554421;81;98845;-80
2022/04/07 05:07:47;;;;;;;11.63;4.90;;;;;;;8.19;84.53;98370.09;3529128;81;98606;-79
2022/04/07 05:12:48;;;;;;;11.00;5.23;;;;;;;8.16;84.67;98379.13;3527084;81;98590;-80
2022/04/07 05:17:53;;;;;;;12.65;5.42;;;;;;;8.16;84.88;98364.84;3515634;81;98865;-76
2022/04/07 05:22:53;;;;;;;10.03;5.15;;;;;;;8.21;84.86;98372.64;3504585;81;97849;-77
2022/04/07 05:27:55;;;;;;;12.57;5.00;;;;;;;8.28;84.80;98375.89;3492416;80;98607;-77
2022/04/07 05:32:56;;;;;;;15.73;6.10;;;;;;;8.44;84.78;98365.09;3541147;81;98684;-77
2022/04/07 05:37:59;;;;;;;9.67;4.43;;;;;;;8.63;84.31;98356.22;3506610;81;98547;-78
2022/04/07 05:43:01;;;;;;;9.50;4.08;;;;;;;8.82;84.09;98357.69;3525080;81;98009;-79
2022/04/07 05:48:03;;;;;;;9.97;4.20;;;;;;;9.00;83.26;98354.68;3535149;81;97788;-77
2022/04/07 05:53:06;;;;;;;10.15;4.05;;;;;;;9.16;83.08;98361.67;3501868;81;98613;-78
2022/04/07 05:58:09;;;;;;;9.80;4.50;;;;;;;9.27;82.50;98345.80;3496768;81;98892;-78
2022/04/07 06:03:11;;;;;;;9.98;4.47;;;;;;;9.39;82.23;98344.58;3519757;81;98357;-78
2022/04/07 06:08:12;;;;;;;12.10;4.80;;;;;;;9.38;81.59;98319.70;3507793;81;98775;-78
2022/04/07 06:13:14;;;;;;;11.78;5.00;;;;;;;9.58;81.54;98346.61;3553728;81;98617;-78
2022/04/07 06:18:16;;;;;;;9.40;4.33;;;;;;;9.66;81.25;98327.41;3489435;81;98615;-79
2022/04/07 06:23:18;;;;;;;9.40;4.00;;;;;;;9.74;80.88;98319.23;3497965;82;98785;-78
2022/04/07 06:28:22;;;;;;;10.70;4.20;;;;;;;9.84;80.68;98320.22;3479240;80;98433;-76
2022/04/07 06:33:23;;;;;;;8.80;3.92;;;;;;;9.96;80.54;98314.08;3473465;82;98698;-79
2022/04/07 06:38:24;;;;;;;13.05;5.92;;;;;;;10.11;79.69;98301.05;3464272;83;98581;-78
2022/04/07 06:43:26;;;;;;;9.35;3.80;;;;;;;10.24;79.44;98289.56;3449700;83;98963;-77
2022/04/07 06:48:28;;;;;;;11.20;3.87;;;;;;;10.38;79.05;98285.73;3475534;82;98666;-80
2022/04/07 06:53:30;;;;;;;10.60;3.77;;;;;;;10.51;78.54;98280.51;3485108;81;99806;-79
2022/04/07 06:58:31;;;;;;;9.88;4.28;;;;;;;10.68;78.14;98275.81;3494965;82;98960;-80
2022/04/07 07:03:33;;;;;;;8.03;3.65;;;;;;;10.82;78.06;98266.61;3470912;82;98682;-79
2022/04/07 07:08:34;;;;;;;9.53;3.75;;;;;;;10.97;77.66;98248.52;3486051;82;98300;-79
2022/04/07 07:13:36;;;;;;;9.18;4.22;;;;;;;11.14;77.14;98239.66;3487125;82;98743;-80
2022/04/07 07:18:38;;;;;;;10.17;4.63;;;;;;;11.19;76.06;98222.02;3528437;80;98807;-78
2022/04/07 07:23:39;;;;;;;8.80;3.57;;;;;;;11.44;75.48;98224.86;3537082;81;98939;-80
2022/04/07 07:28:40;;;;;;;8.13;3.67;;;;;;;11.62;75.27;98221.65;3521841;80;98988;-78
2022/04/07 07:33:41;;;;;;;7.95;3.35;;;;;;;11.79;74.64;98213.48;3538946;81;98919;-79
2022/04/07 07:38:42;;;;;;;9.83;4.60;;;;;;;11.95;74.06;98216.16;3545155;81;98680;-79
2022/04/07 07:43:43;;;;;;;11.53;5.23;;;;;;;12.14;73.27;98204.92;3541281;81;98751;-81
2022/04/07 07:48:44;;;;;;;9.17;3.97;;;;;;;12.33;72.49;98205.92;3501414;81;98733;-80
2022/04/07 07:53:45;;;;;;;7.87;3.47;;;;;;;12.53;71.69;98194.06;3535539;80;98990;-79
2022/04/07 07:58:46;;;;;;;9.63;4.17;;;;;;;12.70;71.91;98181.03;3550481;81;98803;-77
2022/04/07 08:03:48;;;;;;;7.43;3.30;;;;;;;12.80;71.17;98184.05;3559908;81;98757;-78
2022/04/07 08:08:48;;;;;;;9.70;3.83;;;;;;;12.95;70.75;98179.61;3507374;82;99004;-79
2022/04/07 08:13:49;;;;;;;8.67;3.80;;;;;;;13.06;69.74;98182.02;3555932;81;98836;-79
2022/04/07 08:18:50;;;;;;;8.68;3.27;;;;;;;13.22;69.67;98188.75;3540354;81;98941;-78
2022/04/07 08:23:51;;;;;;;8.25;3.83;;;;;;;13.41;68.19;98196.73;3523868;81;98835;-81
2022/04/07 08:28:52;;;;;;;8.00;3.40;;;;;;;13.48;68.39;98187.42;3551655;81;98658;-81
2022/04/07 08:33:53;;;;;;;6.23;3.37;;;;;;;13.58;68.01;98185.64;3551868;81;98817;-80
2022/04/07 08:38:54;;;;;;;7.17;3.50;;;;;;;13.65;67.12;98188.17;3550426;81;98678;-81
2022/04/07 08:43:55;;;;;;;8.38;3.65;;;;;;;13.86;65.94;98171.39;3534769;81;98926;-81
2022/04/07 08:48:57;;;;;;;6.70;3.63;;;;;;;14.10;66.73;98164.91;3524290;81;98873;-80
2022/04/07 08:53:58;;;;;;;9.67;3.50;;;;;;;14.30;65.01;98161.18;3522065;81;99209;-79
2022/04/07 08:58:59;;;;;;;6.27;2.50;;;;;;;14.47;63.81;98153.38;3512616;81;99422;-77
2022/04/07 09:04:00;;;;;;;8.30;3.33;;;;;;;14.56;63.44;98118.81;3521484;81;98762;-80
2022/04/07 09:09:18;;;;;;;7.37;3.37;;;;;;;14.88;63.60;98105.78;3478921;80;99055;-88
2022/04/07 09:14:19;;;;;;;7.22;2.70;;;;;;;15.17;63.12;98104.69;3447124;81;98801;-86
2022/04/07 09:19:22;;;;;;;6.83;2.60;;;;;;;15.51;61.03;98110.67;3453851;81;98795;-89
2022/04/07 09:24:26;;;;;;;6.30;2.62;;;;;;;15.53;58.99;98106.06;3435631;82;98488;-91
2022/04/07 09:29:42;;;;;;;6.15;2.20;;;;;;;15.52;58.41;98092.80;3451534;82;98898;-87
2022/04/07 09:34:45;;;;;;;;;;;;;;;15.58;56.33;98082.62;3434834;83;98841;-84
2022/04/07 09:39:48;;;;;;;7.62;2.72;;;;;;;15.53;56.03;98071.41;3419560;83;85099;-86
2022/04/07 09:44:58;;;;;;;9.23;3.65;;;;;;;15.53;57.34;98062.45;3430576;83;98742;-91
2022/04/07 09:50:01;;;;;;;6.28;2.60;;;;;;;15.53;55.46;98048.59;3431339;83;99399;-92
2022/04/07 09:55:10;;;;;;;6.77;2.30;;;;;;;15.61;55.85;98029.63;3436323;83;98666;-92
2022/04/07 10:00:13;;;;;;;5.17;2.45;;;;;;;15.81;55.18;98024.31;3442563;83;99096;-92
2022/04/07 10:05:15;;;;;;;9.07;2.33;;;;;;;15.94;54.97;98016.53;3420687;83;98960;-88
2022/04/07 10:10:18;;;;;;;5.95;2.20;;;;;;;16.14;54.25;98005.64;3397502;84;98888;-88
2022/04/07 10:15:19;;;;;;;8.43;2.87;;;;;;;15.96;54.31;97985.70;3398021;83;98689;-87
2022/04/07 10:20:25;;;;;;;7.35;2.55;;;;;;;15.89;55.16;97978.34;3382079;83;98998;-84
2022/04/07 10:25:28;;;;;;;7.33;2.40;;;;;;;15.69;53.95;97972.62;3381773;83;99183;-86
2022/04/07 10:30:32;;;;;;;9.93;2.42;;;;;;;15.61;54.53;97956.16;3362556;85;98840;-89
2022/04/07 10:35:36;;;;;;;7.00;1.95;;;;;;;15.76;54.33;97950.08;3383347;84;98729;-90
2022/04/07 11:31:53;;;;;;;6.08;1.92;;;;;;;15.59;53.71;97863.76;3546440;80;98917;-87
2022/04/07 11:36:57;;;;;;;6.70;2.20;;;;;;;15.48;54.24;97857.22;3501862;81;99059;-87
2022/04/07 11:42:01;;;;;;;9.65;1.85;;;;;;;15.56;55.00;97840.38;3567418;79;98713;-85
2022/04/07 11:47:05;;;;;;;7.77;1.70;;;;;;;15.64;53.74;97836.77;3613568;79;98989;-94
2022/04/07 11:52:08;;;;;;;15.40;2.77;;;;;;;15.57;53.54;97830.20;3593674;78;98979;-83
2022/04/07 11:57:10;;;;;;;7.60;1.90;;;;;;;15.61;53.63;97823.09;3594553;79;98882;-86
2022/04/07 12:02:26;;;;;;;6.53;1.65;;;;;;;15.99;53.14;97790.59;3543554;79;98724;-86
2022/04/07 12:07:28;;;;;;;4.20;1.75;;;;;;;16.32;52.15;97793.20;3582669;79;98989;-90
2022/04/07 12:12:31;;;;;;;8.03;2.27;;;;;;;16.45;51.29;97776.42;3624558;78;98746;-86
2022/04/07 12:17:57;;;;;;;11.90;2.00;;;;;;;16.69;51.01;97784.03;3576934;80;99034;-85
2022/04/07 12:23:10;;;;;;;7.10;2.08;;;;;;;16.62;50.27;97760.80;3595477;79;99082;-89
2022/04/07 12:28:21;;;;;;;12.80;2.37;;;;;;;16.50;49.84;97777.75;3624059;78;98754;-96
2022/04/07 12:33:46;;;;;;;5.53;2.02;;;;;;;16.36;50.66;97750.12;3656704;78;99026;-90
2022/04/07 12:39:03;;;;;;;7.75;2.30;;;;;;;16.34;50.67;97756.78;3542762;81;99637;-88
2022/04/07 12:44:08;;;;;;;4.80;1.50;;;;;;;16.28;50.72;97717.08;3646385;78;98821;-88
2022/04/07 12:49:13;;;;;;;5.93;1.80;;;;;;;16.30;50.19;97716.59;3638432;78;98856;-90
2022/04/07 12:54:17;;;;;;;6.03;1.40;;;;;;;16.25;51.30;97680.56;3607276;78;99401;-85
2022/04/07 12:59:20;;;;;;;5.20;1.62;;;;;;;16.32;50.55;97683.58;3654407;78;99028;-85
2022/04/07 13:04:50;;;;;;;4.87;1.60;;;;;;;16.30;50.52;97659.07;3637396;78;98594;-91
2022/04/07 13:09:51;;;;;;;10.40;2.30;;;;;;;16.33;50.77;97651.18;3556692;78;98841;-92
2022/04/07 13:14:52;;;;;;;10.63;1.70;;;;;;;16.41;49.95;97631.51;3679285;78;100309;-91
2022/04/07 13:19:53;;;;;;;17.75;3.92;;;;;;;16.52;49.79;97608.07;3633546;78;98935;-83
2022/04/07 13:24:59;;;;;;;10.40;2.87;;;;;;;16.61;49.91;97599.63;3633094;77;99969;-88
2022/04/07 13:30:02;;;;;;;26.87;2.92;;;;;;;16.70;49.20;97566.18;3623845;78;99097;-91
2022/04/07 13:35:08;;;;;;;24.95;2.95;;;;;;;16.75;47.62;97561.32;3621543;78;99153;-88
2022/04/07 13:40:09;;;;;;;10.83;1.90;;;;;;;16.74;47.55;97547.27;3636929;79;98961;-87
2022/04/07 13:45:10;;;;;;;25.23;2.42;;;;;;;16.70;47.90;97543.97;3580991;78;99195;-92
2022/04/07 13:50:14;;;;;;;14.15;2.25;;;;;;;16.57;47.68;97535.84;3531652;81;99727;-90
2022/04/07 13:55:32;;;;;;;;;;;;;;;;;;;;;
2022/04/07 14:00:32;;;;;;;25.17;4.45;;;;;;;16.17;48.65;97527.44;3479808;81;98833;-91
2022/04/07 14:06:05;;;;;;;19.75;2.87;;;;;;;16.05;48.63;97514.06;3562049;79;100014;-93
2022/04/07 14:16:28;;;;;;;27.50;3.27;;;;;;;15.93;49.64;97484.64;3536207;80;99082;-89
2022/04/07 14:21:18;;;;;;;20.77;4.80;;;;;;;15.86;49.67;97493.34;3585035;78;99127;-85
2022/04/07 14:26:45;;;;;;;33.35;3.55;;;;;;;15.76;50.67;97483.62;3635590;78;99024;-91
2022/04/07 14:31:51;;;;;;;20.68;2.30;;;;;;;15.67;51.61;97471.89;3593359;78;99019;-90
2022/04/07 14:36:54;;;;;;;17.35;2.83;;;;;;;15.55;52.95;97468.20;3591170;79;99165;-89
2022/04/07 14:42:04;;;;;;;15.53;2.43;;;;;;;15.42;53.71;97457.28;3629318;78;99019;-92
2022/04/07 14:47:06;;;;;;;18.37;2.50;;;;;;;15.38;54.15;97445.63;3569136;77;99091;-93
2022/04/07 14:52:11;;;;;;;18.57;2.95;;;;;;;15.36;55.25;97429.47;3551578;79;99085;-90
2022/04/07 14:57:14;;;;;;;20.97;3.25;;;;;;;15.27;55.31;97412.92;3531989;79;99196;-91
2022/04/07 15:02:17;;;;;;;13.35;2.80;;;;;;;15.21;55.61;97402.37;3628251;78;99367;-91
2022/04/07 15:07:22;;;;;;;10.25;2.70;;;;;;;15.16;55.85;97384.30;3577119;78;98956;-86
2022/04/07 15:12:29;;;;;;;29.23;2.97;;;;;;;15.17;56.67;97384.44;3572767;79;99911;-93
2022/04/07 15:17:31;;;;;;;15.45;2.55;;;;;;;15.06;57.44;97368.42;3540669;79;99062;-92
2022/04/07 15:22:35;;;;;;;18.20;2.37;;;;;;;14.94;58.51;97373.63;3633831;78;99669;-94
2022/04/07 15:27:36;;;;;;;11.68;2.17;;;;;;;14.78;59.70;97369.20;3661614;78;98894;-86
2022/04/07 15:32:44;;;;;;;14.67;2.37;;;;;;;14.53;60.66;97367.00;3655752;78;98800;-94
2022/04/07 15:37:44;;;;;;;12.78;2.87;;;;;;;14.32;61.10;97339.08;3645483;78;98976;-89
2022/04/07 15:42:48;;;;;;;19.77;2.60;;;;;;;14.22;61.18;97312.13;3606513;79;99003;-93
2022/04/07 15:47:56;;;;;;;10.10;2.00;;;;;;;14.16;61.16;97299.41;3637658;79;98967;-91
2022/04/07 15:53:04;;;;;;;13.95;2.92;;;;;;;14.15;60.72;97294.52;3622832;79;99088;-94
2022/04/07 15:58:05;;;;;;;15.88;3.15;;;;;;;14.16;60.69;97285.58;3645308;78;99035;-87
2022/04/07 16:03:07;;;;;;;20.90;3.08;;;;;;;14.24;59.12;97275.11;3673383;78;98769;-86
2022/04/07 16:08:10;;;;;;;29.23;3.52;;;;;;;14.28;59.24;97249.37;3588618;78;98809;-90
2022/04/07 16:13:21;;;;;;;15.95;2.65;;;;;;;14.34;58.85;97237.04;3494125;82;99762;-92
2022/04/07 16:18:20;;;;;;;10.33;2.57;;;;;;;14.37;58.52;97216.09;3494826;82;98718;-89
2022/04/07 16:23:21;;;;;;;18.37;3.52;;;;;;;14.42;58.05;97209.89;3650524;78;98820;-85
2022/04/07 16:28:22;;;;;;;17.45;2.47;;;;;;;14.47;57.68;97200.91;3666661;78;99017;-87
2022/04/07 16:33:25;;;;;;;9.90;1.72;;;;;;;14.51;57.83;97208.38;3632268;76;98854;-88
2022/04/07 16:38:30;;;;;;;13.90;2.40;;;;;;;14.49;58.34;97183.84;3641554;78;98811;-93
2022/04/07 16:43:32;;;;;;;11.90;2.17;;;;;;;14.49;58.35;97183.84;3627508;78;98853;-89
2022/04/07 16:48:35;;;;;;;23.45;3.15;;;;;;;14.47;59.11;97212.59;3668829;78;99013;-90
2022/04/07 16:53:38;;;;;;;11.48;1.98;;;;;;;14.10;63.38;97192.09;3600906;78;99159;-87
2022/04/07 16:58:40;;;;;;;14.90;3.05;;;;;;;13.81;68.09;97218.36;3604766;79;99236;-90
2022/04/07 17:03:46;;;;;;;10.53;2.87;;;;;;;13.41;71.57;97205.05;3619059;78;99869;-88
2022/04/07 17:08:56;;;;;;;7.70;2.40;;;;;;;13.05;74.71;97200.42;3577315;78;98987;-94
2022/04/07 17:14:02;;;;;;;10.90;3.52;;;;;;;12.73;75.14;97192.92;3617416;78;98853;-91
2022/04/07 17:19:03;;;;;;;17.25;7.37;;;;;;;12.54;77.83;97184.61;3617847;78;98838;-87
2022/04/07 17:24:10;;;;;;;10.83;3.23;;;;;;;12.42;78.04;97169.05;3612195;77;99986;-93
2022/04/07 17:29:19;;;;;;;7.92;3.40;;;;;;;12.31;79.22;97175.06;3645699;77;98907;-93
2022/04/07 17:34:28;;;;;;;11.18;2.52;;;;;;;12.19;80.03;97193.95;3596140;78;98964;-93
2022/04/07 17:39:34;;;;;;;6.37;1.55;;;;;;;11.95;83.36;97372.83;3615791;78;98924;-86
2022/04/07 17:44:35;;;;;;;6.37;2.02;;;;;;;11.01;78.87;97327.36;3660506;78;98772;-92
2022/04/07 17:49:38;;;;;;;5.70;2.20;;;;;;;10.34;79.48;97327.06;3675655;78;99042;-92
2022/04/07 17:54:39;;;;;;;7.08;2.50;;;;;;;9.95;81.64;97322.20;3659265;78;99408;-92
2022/04/07 17:59:39;;;;;;;7.67;2.27;;;;;;;9.66;83.86;97320.31;3676471;78;98664;-91
2022/04/07 18:04:43;;;;;;;6.65;1.62;;;;;;;9.51;85.00;97318.66;3681971;78;98374;-88
2022/04/07 18:09:45;;;;;;;4.40;1.47;;;;;;;9.42;87.75;97354.25;3632949;78;98589;-89
2022/04/07 18:14:51;;;;;;;7.50;2.43;;;;;;;9.28;88.97;97312.19;3627551;79;98601;-90
2022/04/07 18:19:52;;;;;;;8.50;2.22;;;;;;;9.14;89.26;97283.86;3633410;78;98573;-87
2022/04/07 18:24:58;;;;;;;5.73;1.80;;;;;;;9.04;88.89;97307.52;3644932;78;98428;-89
2022/04/07 18:30:01;;;;;;;6.20;1.62;;;;;;;8.95;89.35;97320.53;3674357;78;107681;-87
2022/04/07 18:35:02;;;;;;;7.20;2.50;;;;;;;8.90;88.95;97373.80;3668607;78;98657;-88
2022/04/07 18:40:11;;;;;;;7.47;2.10;;;;;;;8.84;89.95;97379.05;3653885;78;98561;-88
2022/04/07 18:45:16;;;;;;;6.33;1.97;;;;;;;8.76;90.24;97377.75;3638205;78;101137;-86
2022/04/07 18:50:15;;;;;;;5.72;2.12;;;;;;;8.73;89.61;97369.63;3656722;78;98769;-89
2022/04/07 18:55:17;;;;;;;6.97;2.33;;;;;;;8.66;89.81;97369.83;3636433;78;98329;-89
2022/04/07 19:00:20;;;;;;;9.00;2.33;;;;;;;8.58;89.84;97378.89;3657911;78;98626;-88
2022/04/07 19:05:24;;;;;;;10.13;3.40;;;;;;;8.50;90.11;97380.29;3649984;78;98514;-91
2022/04/07 19:10:25;;;;;;;11.90;3.52;;;;;;;8.44;89.89;97393.59;3647464;78;98722;-88
2022/04/07 19:15:27;;;;;;;13.47;5.60;;;;;;;8.36;90.28;97398.53;3635100;78;98687;-87
2022/04/07 19:20:30;;;;;;;7.65;2.83;;;;;;;8.29;90.06;97400.08;3667100;78;98796;-90
2022/04/07 19:25:33;;;;;;;11.97;3.50;;;;;;;8.25;90.47;97412.34;3622679;78;98522;-87
2022/04/07 19:30:36;;;;;;;8.58;2.75;;;;;;;8.16;90.36;97406.69;3635595;78;98641;-87
2022/04/07 19:35:40;;;;;;;6.45;2.80;;;;;;;8.06;90.74;97411.27;3586075;77;98629;-93
2022/04/07 19:40:42;;;;;;;26.17;7.63;;;;;;;7.95;91.21;97412.16;3591869;78;98212;-89
2022/04/07 19:45:46;;;;;;;10.07;3.43;;;;;;;7.88;91.49;97421.15;3567604;78;98423;-91
2022/04/07 19:50:50;;;;;;;11.90;3.33;;;;;;;7.81;92.33;97429.56;3602121;78;98626;-91
2022/04/07 19:55:51;;;;;;;13.07;4.20;;;;;;;7.72;93.16;97432.91;3617572;78;98638;-90
2022/04/07 20:00:56;;;;;;;10.47;3.60;;;;;;;7.66;92.78;97427.00;3639409;77;98779;-91
2022/04/07 20:06:02;;;;;;;12.05;4.45;;;;;;;7.60;94.18;97421.89;3599604;78;98739;-90
2022/04/07 20:11:04;;;;;;;10.30;4.28;;;;;;;7.53;94.11;97428.30;3623281;78;98819;-93
2022/04/07 20:16:05;;;;;;;9.85;4.12;;;;;;;7.49;94.15;97424.90;3601296;78;98665;-91
2022/04/07 20:21:10;;;;;;;9.65;3.40;;;;;;;7.45;94.83;97433.00;3613571;78;98326;-89
2022/04/07 20:26:12;;;;;;;10.35;3.52;;;;;;;7.41;94.37;97426.88;3623519;78;98332;-91
2022/04/07 20:31:13;;;;;;;11.73;3.87;;;;;;;7.40;94.59;97419.84;3631415;77;98659;-87
2022/04/07 20:36:17;;;;;;;10.00;3.70;;;;;;;7.37;95.99;97422.08;3652448;78;98522;-88
2022/04/07 20:41:18;;;;;;;10.48;3.75;;;;;;;7.36;96.20;97430.87;3579290;79;98798;-93
2022/04/07 20:46:24;;;;;;;10.68;3.77;;;;;;;7.38;97.06;97407.98;3628646;78;98497;-92
2022/04/07 20:51:25;;;;;;;12.58;4.10;;;;;;;7.42;97.73;97407.89;3625600;78;98466;-93
2022/04/07 20:56:27;;;;;;;8.93;3.83;;;;;;;7.45;98.34;97404.28;3631737;78;98552;-92
2022/04/07 21:01:27;;;;;;;10.73;3.70;;;;;;;7.49;98.89;97411.80;3668163;78;98706;-92
2022/04/07 21:06:29;;;;;;;11.90;4.33;;;;;;;7.51;98.20;97415.66;3648693;78;98817;-88
2022/04/07 21:11:30;;;;;;;10.17;3.97;;;;;;;7.54;99.15;97422.23;3599718;79;98384;-93
2022/04/07 21:16:38;;;;;;;11.80;3.67;;;;;;;7.54;98.39;97434.55;3649489;77;98713;-93
2022/04/07 21:21:41;;;;;;;8.20;3.47;;;;;;;7.52;98.42;97437.70;3670700;78;98427;-94
2022/04/07 21:26:52;;;;;;;7.67;3.08;;;;;;;7.52;98.35;97430.11;3634667;78;98231;-94
2022/04/07 21:31:56;;;;;;;12.03;3.30;;;;;;;7.54;97.70;97435.91;3674075;77;98840;-90
2022/04/07 21:37:08;;;;;;;9.58;3.55;;;;;;;7.59;97.05;97443.61;3609109;80;98510;-89
2022/04/07 21:42:09;;;;;;;8.53;3.00;;;;;;;7.62;96.67;97438.05;3524536;81;98396;-89
2022/04/07 21:47:12;;;;;;;8.17;3.27;;;;;;;7.67;95.88;97444.38;3496620;81;98587;-95
2022/04/07 21:52:13;;;;;;;9.90;3.73;;;;;;;7.70;95.38;97459.16;3530605;81;98444;-92
2022/04/07 21:57:14;;;;;;;11.20;3.80;;;;;;;7.71;94.37;97454.64;3531126;81;98414;-89
2022/04/07 22:02:29;;;;;;;12.77;3.93;;;;;;;7.71;93.68;97460.70;3688381;77;98929;-89
2022/04/07 22:07:32;;;;;;;11.35;3.92;;;;;;;7.67;93.24;97455.91;3651007;78;98780;-90
2022/04/07 22:12:36;;;;;;;12.35;3.95;;;;;;;7.64;92.28;97459.52;3635766;77;98589;-89
2022/04/07 22:17:37;;;;;;;7.85;3.20;;;;;;;7.60;91.28;97465.08;3625658;79;98578;-91
2022/04/07 22:22:38;;;;;;;10.63;2.93;;;;;;;7.57;90.65;97468.66;3629729;78;99114;-90
2022/04/07 22:27:39;;;;;;;8.90;2.60;;;;;;;7.56;89.73;97485.50;3532450;80;98784;-90
2022/04/07 22:32:46;;;;;;;7.27;2.30;;;;;;;7.53;89.02;97485.00;3504778;80;98838;-88
2022/04/07 22:37:48;;;;;;;;;;;;;;;7.50;88.71;97497.57;3478931;80;99305;-90
2022/04/07 22:42:50;;;;;;;7.45;1.92;;;;;;;7.49;88.31;97500.72;3504493;81;84452;-89
2022/04/07 22:47:51;;;;;;;8.00;2.00;;;;;;;7.41;87.77;97513.80;3479159;81;98595;-92
2022/04/07 22:52:56;;;;;;;6.97;1.82;;;;;;;7.41;87.59;97522.62;3487447;81;98387;-88
2022/04/07 22:57:57;;;;;;;5.10;1.57;;;;;;;7.39;87.46;97532.61;3494575;81;98414;-93
2022/04/07 23:02:59;;;;;;;4.00;1.70;;;;;;;7.39;87.35;97547.66;3486664;81;98948;-88
2022/04/07 23:08:00;;;;;;;5.87;2.47;;;;;;;7.42;87.28;97542.69;3485474;80;98713;-91
2022/04/07 23:13:05;;;;;;;8.50;1.87;;;;;;;7.45;87.14;97554.75;3466330;81;98770;-93
2022/04/07 23:18:16;;;;;;;5.85;1.62;;;;;;;7.48;87.19;97568.34;3475074;81;98372;-91
2022/04/07 23:23:19;;;;;;;3.90;1.90;;;;;;;7.50;87.09;97521.41;3443956;81;98468;-93
2022/04/07 23:28:20;;;;;;;3.83;1.60;;;;;;;7.48;87.13;97516.97;3433945;82;98379;-93
2022/04/07 23:33:23;;;;;;;4.30;1.67;;;;;;;7.44;87.04;97524.48;3481972;81;99640;-90
2022/04/07 23:38:29;;;;;;;4.72;1.80;;;;;;;7.37;87.05;97512.34;3571319;79;98480;-89
2022/04/07 23:43:31;;;;;;;5.47;1.62;;;;;;;7.33;86.77;97504.23;3564254;79;98572;-88
2022/04/07 23:48:33;;;;;;;5.63;1.70;;;;;;;7.31;86.45;97505.23;3543366;80;98384;-89
2022/04/07 23:53:43;;;;;;;7.62;1.65;;;;;;;7.29;85.92;97506.84;3526801;80;98473;-91
2022/04/07 23:58:46;;;;;;;5.00;2.42;;;;;;;7.27;85.75;97510.62;3532643;80;98549;-89
